sensor_id;sensor_type;location;lat;lon;timestamp;pressure;altitude;pressure_sealevel;temperature;humidity
63903;BME280;50072;50.678;13.938;2023-12-29T00:00:40;99379.56;;;-0.06;100.00
63903;BME280;50072;50.678;13.938;2023-12-29T00:03:26;99368.09;;;-0.09;100.00
63903;BME280;50072;50.678;13.938;2023-12-29T00:05:53;99362.88;;;-0.08;100.00
63903;BME280;50072;50.678;13.938;2023-12-29T00:08:18;99363.88;;;0.02;100.00
63903;BME280;50072;50.678;13.938;2023-12-29T00:10:44;99361.19;;;-0.01;100.00
63903;BME280;50072;50.678;13.938;2023-12-29T00:13:10;99341.88;;;-0.03;100.00
63903;BME280;50072;50.678;13.938;2023-12-29T00:15:36;99344.50;;;-0.03;100.00
63903;BME280;50072;50.678;13.938;2023-12-29T00:18:02;99347.06;;;-0.09;100.00
63903;BME280;50072;50.678;13.938;2023-12-29T00:20:28;99340.88;;;-0.13;100.00
63903;BME280;50072;50.678;13.938;2023-12-29T00:22:54;99340.81;;;-0.18;100.00
63903;BME280;50072;50.678;13.938;2023-12-29T00:25:24;99355.75;;;-0.16;100.00
63903;BME280;50072;50.678;13.938;2023-12-29T00:27:49;99337.28;;;-0.21;100.00
63903;BME280;50072;50.678;13.938;2023-12-29T00:30:15;99342.63;;;-0.12;100.00
63903;BME280;50072;50.678;13.938;2023-12-29T00:32:41;99339.16;;;-0.09;100.00
63903;BME280;50072;50.678;13.938;2023-12-29T00:35:07;99325.00;;;-0.19;100.00
63903;BME280;50072;50.678;13.938;2023-12-29T00:37:33;99329.38;;;-0.23;100.00
63903;BME280;50072;50.678;13.938;2023-12-29T00:39:58;99333.69;;;-0.28;100.00
63903;BME280;50072;50.678;13.938;2023-12-29T00:42:24;99335.41;;;-0.30;100.00
63903;BME280;50072;50.678;13.938;2023-12-29T00:44:50;99337.25;;;-0.24;100.00
63903;BME280;50072;50.678;13.938;2023-12-29T00:47:16;99338.13;;;-0.22;100.00
63903;BME280;50072;50.678;13.938;2023-12-29T00:49:45;99331.22;;;-0.15;100.00
63903;BME280;50072;50.678;13.938;2023-12-29T00:52:10;99328.50;;;-0.20;100.00
63903;BME280;50072;50.678;13.938;2023-12-29T00:54:36;99322.31;;;-0.27;100.00
63903;BME280;50072;50.678;13.938;2023-12-29T00:57:02;99332.00;;;-0.23;100.00
63903;BME280;50072;50.678;13.938;2023-12-29T00:59:28;99324.16;;;-0.20;100.00
63903;BME280;50072;50.678;13.938;2023-12-29T01:01:53;99329.38;;;-0.23;100.00
63903;BME280;50072;50.678;13.938;2023-12-29T01:04:19;99316.94;;;-0.33;100.00
63903;BME280;50072;50.678;13.938;2023-12-29T01:06:45;99314.25;;;-0.38;100.00
63903;BME280;50072;50.678;13.938;2023-12-29T01:09:11;99324.75;;;-0.39;100.00
63903;BME280;50072;50.678;13.938;2023-12-29T01:11:37;99325.63;;;-0.40;100.00
63903;BME280;50072;50.678;13.938;2023-12-29T01:14:03;99312.34;;;-0.49;100.00
63903;BME280;50072;50.678;13.938;2023-12-29T01:16:29;99311.50;;;-0.48;100.00
63903;BME280;50072;50.678;13.938;2023-12-29T01:18:55;99312.31;;;-0.53;100.00
63903;BME280;50072;50.678;13.938;2023-12-29T01:21:21;99325.53;;;-0.46;100.00
63903;BME280;50072;50.678;13.938;2023-12-29T01:23:47;99328.19;;;-0.45;100.00
63903;BME280;50072;50.678;13.938;2023-12-29T01:26:18;99332.56;;;-0.45;100.00
63903;BME280;50072;50.678;13.938;2023-12-29T01:28:44;99324.59;;;-0.50;100.00
63903;BME280;50072;50.678;13.938;2023-12-29T01:31:10;99314.84;;;-0.59;100.00
63903;BME280;50072;50.678;13.938;2023-12-29T01:33:37;99318.34;;;-0.60;100.00
63903;BME280;50072;50.678;13.938;2023-12-29T01:36:02;99307.78;;;-0.63;100.00
63903;BME280;50072;50.678;13.938;2023-12-29T01:38:28;99326.25;;;-0.58;100.00
63903;BME280;50072;50.678;13.938;2023-12-29T01:40:54;99333.38;;;-0.49;100.00
63903;BME280;50072;50.678;13.938;2023-12-29T01:43:20;99327.22;;;-0.52;100.00
63903;BME280;50072;50.678;13.938;2023-12-29T01:45:45;99315.03;;;-0.46;100.00
63903;BME280;50072;50.678;13.938;2023-12-29T01:48:11;99321.16;;;-0.44;100.00
63903;BME280;50072;50.678;13.938;2023-12-29T01:50:37;99310.72;;;-0.41;100.00
63903;BME280;50072;50.678;13.938;2023-12-29T01:53:05;99301.94;;;-0.42;100.00
63903;BME280;50072;50.678;13.938;2023-12-29T01:55:31;99310.63;;;-0.46;100.00
63903;BME280;50072;50.678;13.938;2023-12-29T01:57:58;99298.25;;;-0.55;100.00
63903;BME280;50072;50.678;13.938;2023-12-29T02:00:23;99292.19;;;-0.50;100.00
63903;BME280;50072;50.678;13.938;2023-12-29T02:02:50;99280.69;;;-0.59;100.00
63903;BME280;50072;50.678;13.938;2023-12-29T02:05:17;99277.97;;;-0.65;100.00
63903;BME280;50072;50.678;13.938;2023-12-29T02:07:46;99285.00;;;-0.65;100.00
63903;BME280;50072;50.678;13.938;2023-12-29T02:10:12;99271.75;;;-0.72;100.00
63903;BME280;50072;50.678;13.938;2023-12-29T02:12:41;99284.91;;;-0.70;100.00
63903;BME280;50072;50.678;13.938;2023-12-29T02:15:07;99275.25;;;-0.73;100.00
63903;BME280;50072;50.678;13.938;2023-12-29T02:18:06;99279.53;;;-0.79;100.00
63903;BME280;50072;50.678;13.938;2023-12-29T02:20:33;99269.88;;;-0.79;100.00
63903;BME280;50072;50.678;13.938;2023-12-29T02:22:59;99257.69;;;-0.75;100.00
63903;BME280;50072;50.678;13.938;2023-12-29T02:25:25;99240.91;;;-0.87;100.00
63903;BME280;50072;50.678;13.938;2023-12-29T02:30:44;99263.56;;;-0.93;100.00
63903;BME280;50072;50.678;13.938;2023-12-29T02:33:17;99263.63;;;-0.89;100.00
63903;BME280;50072;50.678;13.938;2023-12-29T02:35:45;99260.03;;;-0.97;100.00
63903;BME280;50072;50.678;13.938;2023-12-29T02:38:12;99261.81;;;-0.93;100.00
63903;BME280;50072;50.678;13.938;2023-12-29T02:40:40;99262.72;;;-0.91;100.00
63903;BME280;50072;50.678;13.938;2023-12-29T02:43:08;99273.22;;;-0.92;100.00
63903;BME280;50072;50.678;13.938;2023-12-29T02:45:34;99262.66;;;-0.97;100.00
63903;BME280;50072;50.678;13.938;2023-12-29T02:48:00;99264.47;;;-0.91;100.00
63903;BME280;50072;50.678;13.938;2023-12-29T02:50:26;99251.38;;;-0.90;100.00
63903;BME280;50072;50.678;13.938;2023-12-29T02:52:52;99248.75;;;-0.88;100.00
63903;BME280;50072;50.678;13.938;2023-12-29T02:55:18;99233.69;;;-1.00;100.00
63903;BME280;50072;50.678;13.938;2023-12-29T02:57:44;99235.41;;;-1.02;100.00
63903;BME280;50072;50.678;13.938;2023-12-29T03:00:10;99247.53;;;-1.10;100.00
63903;BME280;50072;50.678;13.938;2023-12-29T03:02:37;99245.59;;;-1.24;100.00
63903;BME280;50072;50.678;13.938;2023-12-29T03:05:03;99232.31;;;-1.33;100.00
63903;BME280;50072;50.678;13.938;2023-12-29T03:07:29;99215.56;;;-1.41;100.00
63903;BME280;50072;50.678;13.938;2023-12-29T03:09:55;99226.25;;;-1.29;100.00
63903;BME280;50072;50.678;13.938;2023-12-29T03:12:21;99220.13;;;-1.31;100.00
63903;BME280;50072;50.678;13.938;2023-12-29T03:14:46;99214.06;;;-1.27;100.00
63903;BME280;50072;50.678;13.938;2023-12-29T03:17:13;99212.38;;;-1.22;100.00
63903;BME280;50072;50.678;13.938;2023-12-29T03:19:38;99196.50;;;-1.31;100.00
63903;BME280;50072;50.678;13.938;2023-12-29T03:22:04;99214.91;;;-1.28;100.00
63903;BME280;50072;50.678;13.938;2023-12-29T03:24:30;99208.03;;;-1.19;100.00
63903;BME280;50072;50.678;13.938;2023-12-29T03:26:56;99201.91;;;-1.18;100.00
63903;BME280;50072;50.678;13.938;2023-12-29T03:29:22;99205.50;;;-1.13;100.00
63903;BME280;50072;50.678;13.938;2023-12-29T03:31:48;99204.69;;;-1.08;100.00
63903;BME280;50072;50.678;13.938;2023-12-29T03:34:14;99208.31;;;-1.01;100.00
63903;BME280;50072;50.678;13.938;2023-12-29T03:36:40;99203.94;;;-0.99;100.00
63903;BME280;50072;50.678;13.938;2023-12-29T03:39:06;99202.28;;;-0.94;100.00
63903;BME280;50072;50.678;13.938;2023-12-29T03:41:32;99189.97;;;-0.98;100.00
63903;BME280;50072;50.678;13.938;2023-12-29T03:43:57;99191.75;;;-0.94;100.00
63903;BME280;50072;50.678;13.938;2023-12-29T03:46:25;99190.13;;;-0.85;100.00
63903;BME280;50072;50.678;13.938;2023-12-29T03:48:51;99185.72;;;-0.88;100.00
63903;BME280;50072;50.678;13.938;2023-12-29T03:51:18;99179.53;;;-0.92;100.00
63903;BME280;50072;50.678;13.938;2023-12-29T03:53:44;99178.50;;;-1.03;100.00
63903;BME280;50072;50.678;13.938;2023-12-29T03:56:15;99178.59;;;-0.97;100.00
63903;BME280;50072;50.678;13.938;2023-12-29T03:58:42;99168.91;;;-1.01;100.00
63903;BME280;50072;50.678;13.938;2023-12-29T04:01:12;99165.31;;;-1.06;100.00
63903;BME280;50072;50.678;13.938;2023-12-29T04:03:39;99166.28;;;-1.01;100.00
63903;BME280;50072;50.678;13.938;2023-12-29T04:06:06;99169.75;;;-1.03;100.00
63903;BME280;50072;50.678;13.938;2023-12-29T04:08:36;99157.41;;;-1.09;100.00
63903;BME280;50072;50.678;13.938;2023-12-29T04:11:02;99166.28;;;-1.01;100.00
63903;BME280;50072;50.678;13.938;2023-12-29T04:13:28;99162.78;;;-0.98;100.00
63903;BME280;50072;50.678;13.938;2023-12-29T04:15:55;99166.19;;;-1.07;100.00
63903;BME280;50072;50.678;13.938;2023-12-29T04:18:22;99171.44;;;-1.07;100.00
63903;BME280;50072;50.678;13.938;2023-12-29T04:20:48;99152.97;;;-1.13;100.00
63903;BME280;50072;50.678;13.938;2023-12-29T04:23:14;99156.38;;;-1.20;100.00
63903;BME280;50072;50.678;13.938;2023-12-29T04:25:40;99170.31;;;-1.25;100.00
63903;BME280;50072;50.678;13.938;2023-12-29T04:28:07;99162.47;;;-1.23;100.00
63903;BME280;50072;50.678;13.938;2023-12-29T04:30:34;99158.97;;;-1.24;100.00
63903;BME280;50072;50.678;13.938;2023-12-29T04:33:01;99164.22;;;-1.24;100.00
63903;BME280;50072;50.678;13.938;2023-12-29T04:35:27;99169.50;;;-1.20;100.00
63903;BME280;50072;50.678;13.938;2023-12-29T04:37:52;99166.09;;;-1.15;100.00
63903;BME280;50072;50.678;13.938;2023-12-29T04:40:18;99173.97;;;-1.13;100.00
63903;BME280;50072;50.678;13.938;2023-12-29T04:42:44;99176.78;;;-1.02;100.00
63903;BME280;50072;50.678;13.938;2023-12-29T04:45:11;99167.16;;;-0.99;100.00
63903;BME280;50072;50.678;13.938;2023-12-29T04:47:37;99162.88;;;-0.94;100.00
63903;BME280;50072;50.678;13.938;2023-12-29T04:50:03;99172.56;;;-0.90;100.00
63903;BME280;50072;50.678;13.938;2023-12-29T04:52:31;99172.63;;;-0.83;100.00
63903;BME280;50072;50.678;13.938;2023-12-29T04:54:57;99163.91;;;-0.81;100.00
63903;BME280;50072;50.678;13.938;2023-12-29T04:57:23;99154.28;;;-0.80;100.00
63903;BME280;50072;50.678;13.938;2023-12-29T04:59:49;99176.09;;;-0.84;100.00
63903;BME280;50072;50.678;13.938;2023-12-29T05:02:15;99165.63;;;-0.81;100.00
63903;BME280;50072;50.678;13.938;2023-12-29T05:04:42;99156.91;;;-0.80;100.00
63903;BME280;50072;50.678;13.938;2023-12-29T05:07:08;99166.66;;;-0.70;100.00
63903;BME280;50072;50.678;13.938;2023-12-29T05:09:35;99164.13;;;-0.64;100.00
63903;BME280;50072;50.678;13.938;2023-12-29T05:12:00;99164.94;;;-0.68;100.00
63903;BME280;50072;50.678;13.938;2023-12-29T05:14:26;99158.78;;;-0.68;100.00
63903;BME280;50072;50.678;13.938;2023-12-29T05:16:52;99165.66;;;-0.80;100.00
63903;BME280;50072;50.678;13.938;2023-12-29T05:19:18;99159.44;;;-0.88;100.00
63903;BME280;50072;50.678;13.938;2023-12-29T05:21:44;99143.72;;;-0.85;100.00
63903;BME280;50072;50.678;13.938;2023-12-29T05:24:09;99151.59;;;-0.83;100.00
63903;BME280;50072;50.678;13.938;2023-12-29T05:26:35;99148.09;;;-0.85;100.00
63903;BME280;50072;50.678;13.938;2023-12-29T05:29:02;99146.22;;;-0.93;100.00
63903;BME280;50072;50.678;13.938;2023-12-29T05:31:28;99149.81;;;-0.88;100.00
63903;BME280;50072;50.678;13.938;2023-12-29T05:33:55;99147.19;;;-0.88;100.00
63903;BME280;50072;50.678;13.938;2023-12-29T05:36:21;99161.94;;;-0.96;100.00
63903;BME280;50072;50.678;13.938;2023-12-29T05:38:47;99160.16;;;-0.98;100.00
63903;BME280;50072;50.678;13.938;2023-12-29T05:41:13;99163.69;;;-0.98;100.00
63903;BME280;50072;50.678;13.938;2023-12-29T05:43:39;99163.66;;;-0.99;100.00
63903;BME280;50072;50.678;13.938;2023-12-29T05:46:11;99161.91;;;-0.99;100.00
63903;BME280;50072;50.678;13.938;2023-12-29T05:48:38;99165.34;;;-1.03;100.00
63903;BME280;50072;50.678;13.938;2023-12-29T05:51:12;99160.94;;;-1.06;100.00
63903;BME280;50072;50.678;13.938;2023-12-29T05:53:42;99159.16;;;-1.10;100.00
63903;BME280;50072;50.678;13.938;2023-12-29T05:56:11;99170.47;;;-1.14;100.00
63903;BME280;50072;50.678;13.938;2023-12-29T05:58:37;99147.72;;;-1.13;100.00
63903;BME280;50072;50.678;13.938;2023-12-29T06:01:03;99168.88;;;-1.04;100.00
63903;BME280;50072;50.678;13.938;2023-12-29T06:03:29;99174.16;;;-1.01;100.00
63903;BME280;50072;50.678;13.938;2023-12-29T06:05:55;99158.38;;;-1.04;100.00
63903;BME280;50072;50.678;13.938;2023-12-29T06:08:21;99155.78;;;-1.01;100.00
63903;BME280;50072;50.678;13.938;2023-12-29T06:10:47;99157.59;;;-0.97;100.00
63903;BME280;50072;50.678;13.938;2023-12-29T06:13:13;99161.91;;;-1.00;100.00
63903;BME280;50072;50.678;13.938;2023-12-29T06:15:40;99159.19;;;-1.07;100.00
63903;BME280;50072;50.678;13.938;2023-12-29T06:18:06;99168.88;;;-1.04;100.00
63903;BME280;50072;50.678;13.938;2023-12-29T06:20:32;99168.91;;;-1.01;100.00
63903;BME280;50072;50.678;13.938;2023-12-29T06:22:58;99170.63;;;-1.03;100.00
63903;BME280;50072;50.678;13.938;2023-12-29T06:25:24;99180.28;;;-1.00;100.00
63903;BME280;50072;50.678;13.938;2023-12-29T06:27:52;99170.66;;;-1.00;100.00
63903;BME280;50072;50.678;13.938;2023-12-29T06:30:17;99168.97;;;-0.95;100.00
63903;BME280;50072;50.678;13.938;2023-12-29T06:32:43;99170.78;;;-0.92;100.00
63903;BME280;50072;50.678;13.938;2023-12-29T06:35:09;99163.75;;;-0.92;100.00
63903;BME280;50072;50.678;13.938;2023-12-29T06:37:37;99151.56;;;-0.87;100.00
63903;BME280;50072;50.678;13.938;2023-12-29T06:40:04;99150.75;;;-0.84;100.00
63903;BME280;50072;50.678;13.938;2023-12-29T06:42:30;99140.16;;;-0.89;100.00
63903;BME280;50072;50.678;13.938;2023-12-29T06:44:56;99149.00;;;-0.82;100.00
63903;BME280;50072;50.678;13.938;2023-12-29T06:47:22;99148.94;;;-0.87;100.00
63903;BME280;50072;50.678;13.938;2023-12-29T06:49:48;99156.00;;;-0.82;100.00
63903;BME280;50072;50.678;13.938;2023-12-29T06:52:14;99145.50;;;-0.81;100.00
63903;BME280;50072;50.678;13.938;2023-12-29T06:54:40;99142.88;;;-0.82;100.00
63903;BME280;50072;50.678;13.938;2023-12-29T06:57:07;99138.53;;;-0.77;100.00
63903;BME280;50072;50.678;13.938;2023-12-29T06:59:32;99144.75;;;-0.72;100.00
63903;BME280;50072;50.678;13.938;2023-12-29T07:01:58;99156.88;;;-0.82;100.00
63903;BME280;50072;50.678;13.938;2023-12-29T07:04:24;99156.78;;;-0.90;100.00
63903;BME280;50072;50.678;13.938;2023-12-29T07:06:50;99154.97;;;-0.97;100.00
63903;BME280;50072;50.678;13.938;2023-12-29T07:09:16;99142.63;;;-1.01;100.00
63903;BME280;50072;50.678;13.938;2023-12-29T07:11:52;99158.44;;;-0.96;100.00
63903;BME280;50072;50.678;13.938;2023-12-29T07:14:18;99150.63;;;-0.92;100.00
63903;BME280;50072;50.678;13.938;2023-12-29T07:16:45;99143.66;;;-0.90;100.00
63903;BME280;50072;50.678;13.938;2023-12-29T07:19:11;99141.03;;;-0.90;100.00
63903;BME280;50072;50.678;13.938;2023-12-29T07:21:37;99145.56;;;-0.78;100.00
63903;BME280;50072;50.678;13.938;2023-12-29T07:24:03;99145.47;;;-0.84;100.00
63903;BME280;50072;50.678;13.938;2023-12-29T07:26:29;99140.06;;;-0.98;100.00
63903;BME280;50072;50.678;13.938;2023-12-29T07:28:56;99147.88;;;-1.04;100.00
63903;BME280;50072;50.678;13.938;2023-12-29T07:31:23;99155.75;;;-1.02;100.00
63903;BME280;50072;50.678;13.938;2023-12-29T07:33:49;99158.41;;;-1.01;100.00
63903;BME280;50072;50.678;13.938;2023-12-29T07:36:16;99159.31;;;-0.96;100.00
63903;BME280;50072;50.678;13.938;2023-12-29T07:38:42;99144.56;;;-0.88;100.00
63903;BME280;50072;50.678;13.938;2023-12-29T07:41:08;99153.38;;;-0.84;100.00
63903;BME280;50072;50.678;13.938;2023-12-29T07:43:35;99156.69;;;-0.96;100.00
63903;BME280;50072;50.678;13.938;2023-12-29T07:46:04;99168.09;;;-0.95;100.00
63903;BME280;50072;50.678;13.938;2023-12-29T07:48:30;99160.16;;;-1.00;100.00
63903;BME280;50072;50.678;13.938;2023-12-29T07:50:58;99167.38;;;-0.83;100.00
63903;BME280;50072;50.678;13.938;2023-12-29T07:53:29;99171.88;;;-0.72;100.00
63903;BME280;50072;50.678;13.938;2023-12-29T07:55:56;99164.13;;;-0.64;100.00
63903;BME280;50072;50.678;13.938;2023-12-29T07:58:22;99160.59;;;-0.64;100.00
63903;BME280;50072;50.678;13.938;2023-12-29T08:00:48;99172.84;;;-0.66;100.00
63903;BME280;50072;50.678;13.938;2023-12-29T08:03:14;99162.44;;;-0.56;100.00
63903;BME280;50072;50.678;13.938;2023-12-29T08:05:40;99170.44;;;-0.46;100.00
63903;BME280;50072;50.678;13.938;2023-12-29T08:08:06;99166.97;;;-0.42;100.00
63903;BME280;50072;50.678;13.938;2023-12-29T08:10:33;99174.09;;;-0.30;100.00
63903;BME280;50072;50.678;13.938;2023-12-29T08:12:59;99176.88;;;-0.20;100.00
63903;BME280;50072;50.678;13.938;2023-12-29T08:15:25;99174.28;;;-0.13;100.00
63903;BME280;50072;50.678;13.938;2023-12-29T08:17:51;99166.53;;;-0.01;100.00
63903;BME280;50072;50.678;13.938;2023-12-29T08:20:17;99163.16;;;0.15;100.00
63903;BME280;50072;50.678;13.938;2023-12-29T08:22:43;99170.19;;;0.20;100.00
63903;BME280;50072;50.678;13.938;2023-12-29T08:25:11;99175.56;;;0.29;100.00
63903;BME280;50072;50.678;13.938;2023-12-29T08:27:40;99191.44;;;0.43;100.00
63903;BME280;50072;50.678;13.938;2023-12-29T08:30:07;99178.31;;;0.46;100.00
63903;BME280;50072;50.678;13.938;2023-12-29T08:32:33;99187.22;;;0.60;100.00
63903;BME280;50072;50.678;13.938;2023-12-29T08:35:00;99191.69;;;0.72;100.00
63903;BME280;50072;50.678;13.938;2023-12-29T08:37:26;99204.03;;;0.82;100.00
63903;BME280;50072;50.678;13.938;2023-12-29T08:39:55;99186.53;;;0.91;100.00
63903;BME280;50072;50.678;13.938;2023-12-29T08:42:21;99185.72;;;1.04;100.00
63903;BME280;50072;50.678;13.938;2023-12-29T08:44:47;99190.22;;;1.22;100.00
63903;BME280;50072;50.678;13.938;2023-12-29T08:47:14;99179.72;;;1.33;100.00
63903;BME280;50072;50.678;13.938;2023-12-29T08:49:42;99198.22;;;1.45;100.00
63903;BME280;50072;50.678;13.938;2023-12-29T08:52:09;99195.63;;;1.54;100.00
63903;BME280;50072;50.678;13.938;2023-12-29T08:54:38;99198.31;;;1.71;100.00
63903;BME280;50072;50.678;13.938;2023-12-29T08:57:04;99204.50;;;1.87;100.00
63903;BME280;50072;50.678;13.938;2023-12-29T08:59:33;99224.75;;;1.99;100.00
63903;BME280;50072;50.678;13.938;2023-12-29T09:02:03;99212.47;;;2.14;100.00
63903;BME280;50072;50.678;13.938;2023-12-29T09:04:30;99206.31;;;2.19;100.00
63903;BME280;50072;50.678;13.938;2023-12-29T09:06:56;99205.47;;;2.33;100.00
63903;BME280;50072;50.678;13.938;2023-12-29T09:09:24;99206.38;;;2.41;100.00
63903;BME280;50072;50.678;13.938;2023-12-29T09:11:50;99220.44;;;2.58;100.00
63903;BME280;50072;50.678;13.938;2023-12-29T09:14:16;99223.97;;;2.64;100.00
63903;BME280;50072;50.678;13.938;2023-12-29T09:16:42;99220.44;;;2.74;100.00
63903;BME280;50072;50.678;13.938;2023-12-29T09:19:08;99229.25;;;2.82;100.00
63903;BME280;50072;50.678;13.938;2023-12-29T09:21:34;99225.72;;;2.89;100.00
63903;BME280;50072;50.678;13.938;2023-12-29T09:24:00;99232.75;;;2.89;100.00
63903;BME280;50072;50.678;13.938;2023-12-29T09:26:26;99223.03;;;3.02;100.00
63903;BME280;50072;50.678;13.938;2023-12-29T09:28:52;99222.19;;;2.90;100.00
63903;BME280;50072;50.678;13.938;2023-12-29T09:31:18;99230.94;;;3.17;100.00
63903;BME280;50072;50.678;13.938;2023-12-29T09:33:45;99230.91;;;3.36;100.00
63903;BME280;50072;50.678;13.938;2023-12-29T09:36:11;99222.94;;;3.42;100.00
63903;BME280;50072;50.678;13.938;2023-12-29T09:38:37;99223.81;;;3.45;100.00
63903;BME280;50072;50.678;13.938;2023-12-29T09:41:09;99225.53;;;3.57;100.00
63903;BME280;50072;50.678;13.938;2023-12-29T09:43:38;99209.50;;;3.91;100.00
63903;BME280;50072;50.678;13.938;2023-12-29T09:46:07;99209.28;;;4.25;100.00
63903;BME280;50072;50.678;13.938;2023-12-29T09:48:37;99193.97;;;4.63;100.00
63903;BME280;50072;50.678;13.938;2023-12-29T09:51:05;99199.88;;;4.94;100.00
63903;BME280;50072;50.678;13.938;2023-12-29T09:53:32;99192.34;;;5.36;100.00
63903;BME280;50072;50.678;13.938;2023-12-29T09:56:00;99186.75;;;5.61;100.00
63903;BME280;50072;50.678;13.938;2023-12-29T09:58:27;99177.69;;;5.78;100.00
63903;BME280;50072;50.678;13.938;2023-12-29T10:00:53;99174.81;;;5.95;100.00
63903;BME280;50072;50.678;13.938;2023-12-29T10:03:20;99172.66;;;6.23;100.00
63903;BME280;50072;50.678;13.938;2023-12-29T10:05:50;99179.47;;;6.39;100.00
63903;BME280;50072;50.678;13.938;2023-12-29T10:08:17;99169.47;;;6.54;100.00
63903;BME280;50072;50.678;13.938;2023-12-29T10:10:44;99175.56;;;6.61;100.00
63903;BME280;50072;50.678;13.938;2023-12-29T10:13:14;99173.69;;;6.67;100.00
63903;BME280;50072;50.678;13.938;2023-12-29T10:15:50;99172.41;;;6.90;100.00
63903;BME280;50072;50.678;13.938;2023-12-29T10:18:30;99163.88;;;7.19;100.00
63903;BME280;50072;50.678;13.938;2023-12-29T10:21:43;99160.88;;;7.36;100.00
63903;BME280;50072;50.678;13.938;2023-12-29T10:24:18;99166.59;;;7.62;100.00
63903;BME280;50072;50.678;13.938;2023-12-29T10:26:48;99160.91;;;7.78;100.00
63903;BME280;50072;50.678;13.938;2023-12-29T10:29:16;99159.66;;;7.93;100.00
63903;BME280;50072;50.678;13.938;2023-12-29T10:31:44;99155.63;;;8.15;100.00
63903;BME280;50072;50.678;13.938;2023-12-29T10:34:23;99165.56;;;8.47;100.00
63903;BME280;50072;50.678;13.938;2023-12-29T10:36:59;99163.69;;;8.51;100.00
63903;BME280;50072;50.678;13.938;2023-12-29T10:39:29;99163.97;;;8.74;100.00
63903;BME280;50072;50.678;13.938;2023-12-29T10:42:05;99168.66;;;8.99;100.00
63903;BME280;50072;50.678;13.938;2023-12-29T10:44:36;99177.34;;;9.07;100.00
63903;BME280;50072;50.678;13.938;2023-12-29T10:47:09;99168.94;;;9.23;100.00
63903;BME280;50072;50.678;13.938;2023-12-29T10:49:35;99175.75;;;9.33;100.00
63903;BME280;50072;50.678;13.938;2023-12-29T10:52:14;99171.13;;;9.40;100.00
63903;BME280;50072;50.678;13.938;2023-12-29T10:54:41;99162.63;;;9.57;100.00
63903;BME280;50072;50.678;13.938;2023-12-29T10:57:10;99171.69;;;9.82;100.00
63903;BME280;50072;50.678;13.938;2023-12-29T10:59:38;99176.16;;;10.12;100.00
63903;BME280;50072;50.678;13.938;2023-12-29T11:02:04;99180.81;;;10.62;100.00
63903;BME280;50072;50.678;13.938;2023-12-29T11:04:31;99169.56;;;10.77;100.00
63903;BME280;50072;50.678;13.938;2023-12-29T11:06:56;99170.47;;;10.78;100.00
63903;BME280;50072;50.678;13.938;2023-12-29T11:09:31;99153.44;;;10.80;100.00
63903;BME280;50072;50.678;13.938;2023-12-29T11:12:05;99155.94;;;10.85;100.00
63903;BME280;50072;50.678;13.938;2023-12-29T11:14:35;99162.44;;;11.04;100.00
63903;BME280;50072;50.678;13.938;2023-12-29T11:17:02;99162.28;;;11.33;100.00
63903;BME280;50072;50.678;13.938;2023-12-29T11:19:30;99156.56;;;11.67;100.00
63903;BME280;50072;50.678;13.938;2023-12-29T11:21:56;99165.94;;;11.79;100.00
63903;BME280;50072;50.678;13.938;2023-12-29T11:24:24;99156.56;;;11.67;100.00
63903;BME280;50072;50.678;13.938;2023-12-29T11:26:50;99156.28;;;11.75;100.00
63903;BME280;50072;50.678;13.938;2023-12-29T11:29:17;99156.03;;;11.57;100.00
63903;BME280;50072;50.678;13.938;2023-12-29T11:31:46;99149.53;;;11.39;100.00
63903;BME280;50072;50.678;13.938;2023-12-29T11:34:48;99157.56;;;11.65;100.00
63903;BME280;50072;50.678;13.938;2023-12-29T11:37:59;99153.94;;;11.66;100.00
63903;BME280;50072;50.678;13.938;2023-12-29T11:40:30;99144.47;;;11.32;100.00
63903;BME280;50072;50.678;13.938;2023-12-29T11:43:04;99108.50;;;11.39;100.00
63903;BME280;50072;50.678;13.938;2023-12-29T11:45:33;99119.69;;;11.50;100.00
63903;BME280;50072;50.678;13.938;2023-12-29T11:48:03;99103.00;;;11.42;100.00
63903;BME280;50072;50.678;13.938;2023-12-29T11:50:33;99104.91;;;11.38;100.00
63903;BME280;50072;50.678;13.938;2023-12-29T11:52:59;99101.94;;;11.22;100.00
63903;BME280;50072;50.678;13.938;2023-12-29T11:55:30;99108.34;;;11.18;100.00
63903;BME280;50072;50.678;13.938;2023-12-29T11:57:57;99101.41;;;11.13;100.00
63903;BME280;50072;50.678;13.938;2023-12-29T12:00:45;99104.56;;;11.24;100.00
63903;BME280;50072;50.678;13.938;2023-12-29T12:03:30;99116.50;;;11.15;100.00
63903;BME280;50072;50.678;13.938;2023-12-29T12:05:59;99107.72;;;11.12;100.00
63903;BME280;50072;50.678;13.938;2023-12-29T12:08:37;99109.28;;;11.17;100.00
63903;BME280;50072;50.678;13.938;2023-12-29T12:13:59;99109.06;;;11.23;100.00
63903;BME280;50072;50.678;13.938;2023-12-29T12:16:49;99107.97;;;11.29;100.00
63903;BME280;50072;50.678;13.938;2023-12-29T12:19:17;99097.44;;;11.25;100.00
63903;BME280;50072;50.678;13.938;2023-12-29T12:21:47;99089.28;;;11.28;100.00
63903;BME280;50072;50.678;13.938;2023-12-29T12:24:14;99087.28;;;11.33;100.00
63903;BME280;50072;50.678;13.938;2023-12-29T12:26:40;99083.66;;;11.34;100.00
63903;BME280;50072;50.678;13.938;2023-12-29T12:29:07;99086.06;;;11.42;100.00
63903;BME280;50072;50.678;13.938;2023-12-29T12:31:34;99082.22;;;11.49;100.00
63903;BME280;50072;50.678;13.938;2023-12-29T12:34:00;99089.03;;;11.57;100.00
63903;BME280;50072;50.678;13.938;2023-12-29T12:36:26;99092.66;;;11.56;100.00
63903;BME280;50072;50.678;13.938;2023-12-29T12:41:22;99069.16;;;11.63;100.00
63903;BME280;50072;50.678;13.938;2023-12-29T12:44:07;99074.91;;;11.76;100.00
63903;BME280;50072;50.678;13.938;2023-12-29T12:47:05;99087.75;;;11.68;82.49
63903;BME280;50072;50.678;13.938;2023-12-29T12:49:29;99079.75;;;11.66;82.38
63903;BME280;50072;50.678;13.938;2023-12-29T12:51:56;99083.75;;;11.56;82.36
63903;BME280;50072;50.678;13.938;2023-12-29T12:54:22;99086.28;;;11.59;82.07